Time;durP1;ratioP1;P1;durP2;ratioP2;P2;SDS_P1;SDS_P2;PMS_P1;PMS_P2;Temp;Humidity;BMP_temperature;BMP_pressure;BME280_temperature;BME280_humidity;BME280_pressure;Samples;Min_cycle;Max_cycle;Signal;HPM_P1;HPM_P2
2022/07/04 00:00:51;;;;;;;6.57;6.03;;;14.40;99.90;;;;;;4970379;28;20035;-78
2022/07/04 00:03:16;;;;;;;7.32;6.35;;;14.30;99.90;;;;;;4985878;28;20050;-78
2022/07/04 00:05:42;;;;;;;7.53;6.72;;;14.30;99.90;;;;;;4971924;28;20403;-79
2022/07/04 00:08:08;;;;;;;7.22;6.53;;;14.30;99.90;;;;;;4995835;28;20050;-78
2022/07/04 00:10:33;;;;;;;6.68;6.13;;;14.20;99.90;;;;;;4965018;28;20050;-79
2022/07/04 00:12:59;;;;;;;7.15;6.45;;;14.20;99.90;;;;;;4971504;28;20058;-78
2022/07/04 00:15:25;;;;;;;7.30;6.57;;;14.20;99.90;;;;;;4970758;28;20411;-78
2022/07/04 00:17:52;;;;;;;7.18;6.47;;;14.10;99.90;;;;;;4972516;28;20093;-78
2022/07/04 00:20:18;;;;;;;15.60;7.47;;;14.10;99.90;;;;;;4977246;28;20046;-79
2022/07/04 00:22:44;;;;;;;8.52;7.47;;;14.00;99.90;;;;;;4973722;28;20058;-78
2022/07/04 00:25:10;;;;;;;8.45;7.65;;;14.00;99.90;;;;;;4974149;28;20054;-78
2022/07/04 00:27:36;;;;;;;7.10;6.50;;;14.00;99.90;;;;;;4974188;28;20109;-78
2022/07/04 00:30:03;;;;;;;7.78;6.57;;;13.90;99.90;;;;;;4961622;28;20054;-77
2022/07/04 00:32:29;;;;;;;7.57;6.73;;;13.90;99.90;;;;;;4992268;28;20042;-77
2022/07/04 00:34:54;;;;;;;8.70;7.43;;;13.90;99.90;;;;;;4991215;28;20047;-78
2022/07/04 00:37:21;;;;;;;9.27;7.28;;;13.80;99.90;;;;;;4970455;28;20539;-78
2022/07/04 00:39:46;;;;;;;9.68;7.68;;;13.80;99.90;;;;;;4970560;28;20047;-77
2022/07/04 00:42:13;;;;;;;9.00;7.28;;;13.70;99.90;;;;;;4970950;28;20053;-78
2022/07/04 00:44:39;;;;;;;7.93;7.13;;;13.70;99.90;;;;;;4971174;28;20043;-77
2022/07/04 00:47:05;;;;;;;8.98;7.53;;;13.60;99.90;;;;;;4970425;28;20078;-77
2022/07/04 00:49:31;;;;;;;10.30;7.20;;;13.60;99.90;;;;;;4964172;28;20057;-77
2022/07/04 00:51:56;;;;;;;7.55;6.85;;;13.60;99.90;;;;;;4971596;28;20063;-77
2022/07/04 00:54:26;;;;;;;8.02;7.30;;;13.50;99.90;;;;;;4963385;28;20058;-77
2022/07/04 00:56:53;;;;;;;7.78;6.97;;;13.50;99.90;;;;;;4967571;28;20085;-77
2022/07/04 00:59:19;;;;;;;8.05;7.30;;;13.40;99.90;;;;;;4969445;28;20046;-77
2022/07/04 01:01:45;;;;;;;7.20;6.32;;;13.40;99.90;;;;;;4968445;28;20055;-77
2022/07/04 01:04:11;;;;;;;9.77;6.88;;;13.40;99.90;;;;;;4969407;28;20050;-76
2022/07/04 01:06:37;;;;;;;11.32;8.00;;;13.30;99.90;;;;;;4970047;28;20530;-77
2022/07/04 01:09:04;;;;;;;8.38;7.43;;;13.30;99.90;;;;;;4969843;28;20150;-77
2022/07/04 01:11:30;;;;;;;8.60;7.70;;;13.30;99.90;;;;;;4961116;28;20053;-77
2022/07/04 01:13:57;;;;;;;7.85;6.97;;;13.30;99.90;;;;;;4969763;28;20051;-77
2022/07/04 01:16:25;;;;;;;12.95;7.72;;;13.20;99.90;;;;;;4970125;28;20046;-77
2022/07/04 01:18:53;;;;;;;7.47;6.88;;;13.20;99.90;;;;;;4969004;28;20061;-76
2022/07/04 01:21:19;;;;;;;8.48;7.43;;;13.10;99.90;;;;;;4969578;28;20058;-76
2022/07/04 01:23:45;;;;;;;7.65;6.82;;;13.20;99.90;;;;;;4969617;28;20055;-77
2022/07/04 01:26:11;;;;;;;11.00;7.50;;;13.10;99.90;;;;;;4970063;28;20093;-78
2022/07/04 01:28:38;;;;;;;8.02;7.22;;;13.10;99.90;;;;;;4969656;28;20047;-78
2022/07/04 01:31:04;;;;;;;8.90;7.20;;;13.10;99.90;;;;;;4969723;28;20459;-78
2022/07/04 01:33:30;;;;;;;8.05;7.25;;;13.00;99.90;;;;;;4969476;28;20051;-78
2022/07/04 01:35:56;;;;;;;8.98;8.07;;;13.00;99.90;;;;;;4966418;28;20051;-79
2022/07/04 01:38:21;;;;;;;8.93;7.28;;;12.90;99.90;;;;;;4963609;28;20051;-78
2022/07/04 01:40:47;;;;;;;8.88;7.63;;;13.00;99.90;;;;;;4969389;28;20077;-77
2022/07/04 01:43:13;;;;;;;10.25;7.20;;;13.00;99.90;;;;;;4979962;28;20069;-78
2022/07/04 01:45:39;;;;;;;11.07;9.10;;;12.90;99.90;;;;;;4969788;28;20400;-78
2022/07/04 01:48:05;;;;;;;12.45;9.35;;;12.90;99.90;;;;;;4963021;28;20066;-78
2022/07/04 01:50:31;;;;;;;13.02;9.98;;;12.90;99.90;;;;;;4954139;28;20039;-78
2022/07/04 01:52:57;;;;;;;9.10;8.20;;;12.90;99.90;;;;;;4969583;28;20121;-78
2022/07/04 01:55:22;;;;;;;12.98;10.15;;;12.90;99.90;;;;;;4969557;28;20551;-78
2022/07/04 01:57:49;;;;;;;8.93;7.97;;;12.90;99.90;;;;;;4966896;28;20047;-77
2022/07/04 02:02:59;;;;;;;10.32;8.25;;;12.80;99.90;;;;;;4968594;28;20090;-78
2022/07/04 02:05:24;;;;;;;9.32;8.43;;;12.80;99.90;;;;;;4969102;28;20089;-78
2022/07/04 02:07:50;;;;;;;11.57;9.77;;;12.80;99.90;;;;;;4968928;28;20837;-77
2022/07/04 02:10:17;;;;;;;13.73;10.13;;;12.80;99.90;;;;;;4969402;28;20050;-77
2022/07/04 02:13:01;;;;;;;10.98;9.00;;;12.80;99.90;;;;;;4969234;28;20046;-78
2022/07/04 02:15:41;;;;;;;10.65;9.55;;;12.70;99.90;;;;;;4960864;28;20239;-77
2022/07/04 02:18:09;;;;;;;10.80;9.75;;;12.70;99.90;;;;;;4968278;28;20035;-78
2022/07/04 02:20:37;;;;;;;10.68;9.57;;;12.70;99.90;;;;;;4984766;28;20133;-78
2022/07/04 02:23:03;;;;;;;9.40;8.40;;;12.70;99.90;;;;;;4968913;28;20623;-78
2022/07/04 02:25:29;;;;;;;10.88;8.88;;;12.60;99.90;;;;;;4964315;28;20043;-78
2022/07/04 02:27:55;;;;;;;12.45;9.98;;;12.60;99.90;;;;;;4959809;28;20187;-78
2022/07/04 02:30:22;;;;;;;10.70;9.60;;;12.60;99.90;;;;;;4968357;28;20038;-78
2022/07/04 02:32:47;;;;;;;12.60;10.05;;;12.60;99.90;;;;;;4969192;28;20121;-78
2022/07/04 02:35:13;;;;;;;10.55;9.43;;;12.60;99.90;;;;;;4966336;28;20095;-78
2022/07/04 02:37:39;;;;;;;11.32;9.77;;;12.50;99.90;;;;;;4968098;28;20123;-77
2022/07/04 02:40:06;;;;;;;12.93;10.30;;;12.50;99.90;;;;;;4970309;28;20065;-78
2022/07/04 02:42:35;;;;;;;11.63;10.30;;;12.50;99.90;;;;;;4974535;28;20046;-78
2022/07/04 02:45:01;;;;;;;12.05;10.15;;;12.50;99.90;;;;;;4975896;28;20053;-78
2022/07/04 02:47:27;;;;;;;12.93;11.38;;;12.50;99.90;;;;;;4971738;28;20043;-78
2022/07/04 02:49:53;;;;;;;9.57;8.13;;;12.40;99.90;;;;;;4968892;28;20045;-76
2022/07/04 02:52:19;;;;;;;11.40;10.10;;;12.40;99.90;;;;;;4986678;28;20053;-78
2022/07/04 02:54:46;;;;;;;11.05;9.93;;;12.40;99.90;;;;;;4967266;28;20065;-78
2022/07/04 02:57:13;;;;;;;15.38;10.52;;;12.40;99.90;;;;;;4971480;28;20085;-77
2022/07/04 02:59:39;;;;;;;13.07;11.05;;;12.40;99.90;;;;;;4987502;28;20054;-78
2022/07/04 03:02:05;;;;;;;14.57;11.18;;;12.30;99.90;;;;;;4995118;28;20120;-77
2022/07/04 03:04:31;;;;;;;13.93;10.32;;;12.30;99.90;;;;;;4970397;28;20113;-78
2022/07/04 03:06:57;;;;;;;18.10;11.82;;;12.30;99.90;;;;;;4984319;28;20153;-78
2022/07/04 03:09:23;;;;;;;10.95;9.85;;;12.30;99.90;;;;;;4965902;28;20053;-78
2022/07/04 03:11:49;;;;;;;17.13;11.50;;;12.20;99.90;;;;;;4976525;28;20054;-78
2022/07/04 03:14:14;;;;;;;11.80;10.57;;;12.20;99.90;;;;;;4970420;28;20042;-77
2022/07/04 03:16:40;;;;;;;15.23;11.65;;;12.20;99.90;;;;;;4985507;28;20088;-77
2022/07/04 03:19:06;;;;;;;13.23;10.52;;;12.20;99.90;;;;;;4970624;28;20053;-77
2022/07/04 03:21:31;;;;;;;13.57;10.88;;;12.10;99.90;;;;;;4969660;28;20491;-78
2022/07/04 03:23:59;;;;;;;13.88;10.98;;;12.10;99.90;;;;;;4971328;28;20388;-77
2022/07/04 03:26:29;;;;;;;;;;;12.20;99.90;;;;;;4971271;28;20057;-78
2022/07/04 03:28:55;;;;;;;17.38;14.20;;;12.10;99.90;;;;;;4976297;28;19975;-78
2022/07/04 03:31:22;;;;;;;17.92;12.63;;;12.10;99.90;;;;;;4985219;28;20050;-78
2022/07/04 03:33:48;;;;;;;16.80;13.88;;;12.20;99.90;;;;;;4987062;28;20145;-78
2022/07/04 03:36:13;;;;;;;17.10;14.02;;;12.10;99.90;;;;;;4975177;28;20079;-78
2022/07/04 03:38:39;;;;;;;20.02;14.75;;;12.10;99.90;;;;;;4970768;28;20046;-78
2022/07/04 03:41:05;;;;;;;17.80;13.82;;;12.20;99.90;;;;;;4964040;28;20050;-76
2022/07/04 03:43:31;;;;;;;24.20;14.43;;;12.10;99.90;;;;;;4981132;28;20050;-73
2022/07/04 03:45:56;;;;;;;18.20;15.40;;;12.10;99.90;;;;;;4971093;28;20560;-73
2022/07/04 03:48:22;;;;;;;20.95;14.98;;;12.20;99.90;;;;;;4999830;28;20049;-73
2022/07/04 03:50:47;;;;;;;19.02;16.27;;;12.10;99.90;;;;;;4986707;28;20866;-73
2022/07/04 03:53:14;;;;;;;17.60;15.75;;;12.20;99.90;;;;;;4987463;28;20420;-73
2022/07/04 03:55:42;;;;;;;22.30;17.02;;;12.20;99.90;;;;;;4977924;28;20190;-73
2022/07/04 03:58:07;;;;;;;16.80;14.55;;;12.20;99.90;;;;;;4976002;28;20065;-72
2022/07/04 04:00:35;;;;;;;18.90;14.98;;;12.20;99.90;;;;;;4970595;28;20046;-72
2022/07/04 04:03:00;;;;;;;21.53;18.00;;;12.30;99.90;;;;;;4978140;28;20055;-72
2022/07/04 04:05:26;;;;;;;19.98;16.10;;;12.30;99.90;;;;;;4984437;28;20046;-72
2022/07/04 04:08:01;;;;;;;24.38;17.23;;;12.40;99.90;;;;;;4988969;28;20117;-72
2022/07/04 04:10:30;;;;;;;26.67;17.33;;;12.50;99.90;;;;;;4974942;28;20097;-72
2022/07/04 04:12:57;;;;;;;20.10;16.15;;;12.50;99.90;;;;;;4969309;28;20077;-72
2022/07/04 04:15:23;;;;;;;22.27;15.80;;;12.60;99.90;;;;;;4967686;28;20058;-72
2022/07/04 04:17:48;;;;;;;20.17;15.80;;;12.60;99.90;;;;;;4986259;28;20154;-72
2022/07/04 04:20:14;;;;;;;17.85;15.95;;;12.70;99.90;;;;;;4971801;28;20054;-74
2022/07/04 04:22:40;;;;;;;17.90;15.80;;;12.80;99.90;;;;;;4970470;28;20082;-73
2022/07/04 04:25:06;;;;;;;26.75;17.10;;;12.80;99.90;;;;;;4967880;28;20132;-73
2022/07/04 04:27:32;;;;;;;21.00;16.73;;;12.90;99.90;;;;;;4974726;28;20047;-74
2022/07/04 04:29:57;;;;;;;18.35;16.13;;;12.90;99.90;;;;;;4967331;28;20070;-74
2022/07/04 04:32:23;;;;;;;25.48;18.10;;;13.00;99.90;;;;;;4988136;28;20498;-73
2022/07/04 04:34:48;;;;;;;21.15;17.80;;;13.00;99.90;;;;;;4961262;28;20054;-74
2022/07/04 04:37:14;;;;;;;27.70;19.27;;;13.10;99.90;;;;;;4967189;28;20054;-72
2022/07/04 04:39:40;;;;;;;22.27;18.40;;;13.20;99.90;;;;;;4964299;28;20385;-74
2022/07/04 04:42:05;;;;;;;28.85;19.80;;;13.30;99.90;;;;;;4970027;28;20125;-74
2022/07/04 04:44:31;;;;;;;24.85;19.63;;;13.30;99.90;;;;;;4987832;28;20400;-74
2022/07/04 04:46:57;;;;;;;36.30;20.70;;;13.30;99.90;;;;;;4971568;28;20100;-74
2022/07/04 04:49:22;;;;;;;27.00;18.67;;;13.30;99.90;;;;;;4970404;28;20889;-73
2022/07/04 04:51:49;;;;;;;29.00;19.77;;;13.40;99.90;;;;;;4969317;28;20051;-74
2022/07/04 04:54:15;;;;;;;32.47;21.88;;;13.40;99.90;;;;;;4984920;28;20043;-73
2022/07/04 04:56:40;;;;;;;31.77;22.40;;;13.50;99.90;;;;;;4961572;28;20590;-73
2022/07/04 04:59:07;;;;;;;34.60;23.15;;;13.50;99.90;;;;;;4986721;28;20558;-73
2022/07/04 05:01:49;;;;;;;40.58;26.42;;;13.60;99.90;;;;;;4967947;28;20143;-73
2022/07/04 05:04:15;;;;;;;38.13;27.75;;;13.60;99.90;;;;;;4986585;28;20113;-73
2022/07/04 05:06:41;;;;;;;42.05;27.10;;;13.70;99.90;;;;;;4987356;28;20046;-72
2022/07/04 05:09:06;;;;;;;40.90;28.65;;;13.80;99.90;;;;;;4979665;28;20105;-73
2022/07/04 05:11:33;;;;;;;42.30;30.00;;;13.90;99.90;;;;;;4990358;28;20110;-72
2022/07/04 05:13:58;;;;;;;42.30;29.13;;;13.90;99.90;;;;;;4990590;28;20046;-72
2022/07/04 05:16:26;;;;;;;45.20;27.70;;;14.00;99.90;;;;;;4980390;28;20054;-72
2022/07/04 05:18:52;;;;;;;36.97;26.70;;;14.00;99.90;;;;;;4988442;28;20046;-72
2022/07/04 05:21:17;;;;;;;35.97;25.23;;;14.00;99.90;;;;;;4985204;28;20046;-72
2022/07/04 05:23:43;;;;;;;35.20;25.25;;;14.10;99.90;;;;;;4972931;28;20047;-72
2022/07/04 05:26:08;;;;;;;33.85;23.98;;;14.10;99.90;;;;;;4973077;28;20046;-72
2022/07/04 05:28:34;;;;;;;27.98;21.02;;;14.10;99.90;;;;;;4989398;28;20042;-72
2022/07/04 05:31:00;;;;;;;27.25;20.73;;;14.20;99.90;;;;;;4990782;28;20046;-72
2022/07/04 05:33:25;;;;;;;32.20;21.13;;;14.20;99.90;;;;;;4989274;28;20767;-73
2022/07/04 05:35:51;;;;;;;28.08;20.15;;;14.30;99.90;;;;;;4989974;28;20096;-72
2022/07/04 05:38:18;;;;;;;24.13;19.70;;;14.40;99.90;;;;;;4985252;28;20553;-76
2022/07/04 05:40:43;;;;;;;30.75;21.83;;;14.40;99.90;;;;;;4994553;28;20157;-76
2022/07/04 05:43:10;;;;;;;32.30;20.20;;;14.50;99.90;;;;;;4990861;28;20118;-75
2022/07/04 05:45:35;;;;;;;27.92;19.42;;;14.50;99.90;;;;;;4972559;28;20113;-77
2022/07/04 05:48:01;;;;;;;24.73;20.55;;;14.60;99.90;;;;;;4965436;28;20542;-74
2022/07/04 05:50:27;;;;;;;21.98;17.17;;;14.80;99.90;;;;;;4978254;28;20038;-76
2022/07/04 05:52:53;;;;;;;44.83;18.98;;;14.90;99.90;;;;;;4973084;28;20050;-77
2022/07/04 05:55:20;;;;;;;21.95;17.70;;;15.10;99.90;;;;;;4990420;28;20043;-74
2022/07/04 05:57:46;;;;;;;24.38;18.15;;;15.20;99.90;;;;;;4990704;28;20464;-75
2022/07/04 06:00:12;;;;;;;31.08;18.63;;;15.40;99.90;;;;;;4971254;28;20046;-77
2022/07/04 06:02:38;;;;;;;19.30;16.05;;;15.50;99.90;;;;;;4972024;28;20038;-76
2022/07/04 06:05:04;;;;;;;26.75;18.73;;;15.60;99.90;;;;;;4972485;28;20101;-76
2022/07/04 06:07:30;;;;;;;27.25;15.65;;;15.60;99.90;;;;;;4965640;28;20050;-76
2022/07/04 06:09:55;;;;;;;24.60;16.38;;;15.80;99.90;;;;;;4967279;28;20054;-75
2022/07/04 06:12:21;;;;;;;20.20;15.75;;;15.90;99.90;;;;;;4971827;28;20074;-75
2022/07/04 06:14:46;;;;;;;19.77;15.50;;;16.00;99.90;;;;;;4979523;28;20558;-78
2022/07/04 06:17:12;;;;;;;21.45;15.30;;;16.10;99.90;;;;;;4970280;28;20046;-77
2022/07/04 06:19:38;;;;;;;22.08;15.77;;;16.20;99.90;;;;;;4970564;28;21363;-77
2022/07/04 06:22:03;;;;;;;20.17;14.90;;;16.20;99.90;;;;;;4971686;28;20222;-78
2022/07/04 06:24:29;;;;;;;29.70;15.65;;;16.30;99.90;;;;;;4986144;28;20049;-78
2022/07/04 06:26:55;;;;;;;22.15;15.90;;;16.40;99.90;;;;;;4955206;28;20054;-78
2022/07/04 06:29:20;;;;;;;22.77;15.35;;;16.60;99.90;;;;;;4984659;28;20058;-78
2022/07/04 06:31:46;;;;;;;20.30;13.35;;;16.70;99.90;;;;;;4957330;28;20049;-79
2022/07/04 06:36:57;;;;;;;20.95;13.07;;;16.90;99.90;;;;;;4972027;28;20058;-78
2022/07/04 06:39:23;;;;;;;13.48;11.55;;;16.90;99.90;;;;;;4971616;28;20061;-77
2022/07/04 06:41:48;;;;;;;11.88;10.65;;;17.00;99.90;;;;;;4963203;28;20085;-78
2022/07/04 06:44:15;;;;;;;17.67;11.15;;;17.10;99.90;;;;;;4972001;28;20057;-77
2022/07/04 06:46:40;;;;;;;24.95;12.25;;;17.20;99.90;;;;;;4972034;28;20819;-77
2022/07/04 06:49:10;;;;;;;26.27;10.32;;;17.20;99.90;;;;;;4971422;28;20038;-78
2022/07/04 06:51:35;;;;;;;12.43;9.20;;;17.40;99.90;;;;;;4968983;28;20062;-76
2022/07/04 06:54:01;;;;;;;12.90;8.98;;;17.70;99.90;;;;;;4949468;28;20053;-76
2022/07/04 06:56:27;;;;;;;13.88;9.02;;;18.00;99.90;;;;;;4956412;28;20055;-77
2022/07/04 06:58:52;;;;;;;16.27;9.63;;;18.30;99.90;;;;;;4980998;28;20427;-78
2022/07/04 07:01:18;;;;;;;11.20;7.90;;;18.60;99.90;;;;;;4955252;28;20050;-77
2022/07/04 07:03:44;;;;;;;17.52;9.93;;;18.90;99.90;;;;;;4963371;28;20108;-77
2022/07/04 07:06:09;;;;;;;18.35;7.97;;;19.20;99.90;;;;;;4987954;28;20086;-78
2022/07/04 07:08:35;;;;;;;11.65;7.68;;;19.50;99.90;;;;;;4967183;28;20047;-78
2022/07/04 07:11:14;;;;;;;7.95;7.13;;;19.60;99.90;;;;;;4978641;28;20046;-77
2022/07/04 07:13:45;;;;;;;15.75;9.07;;;19.80;99.90;;;;;;4973386;28;20078;-81
2022/07/04 07:16:12;;;;;;;18.85;8.45;;;20.00;99.90;;;;;;4970718;28;20046;-78
2022/07/04 07:18:38;;;;;;;18.92;10.40;;;20.30;99.90;;;;;;4986700;28;20046;-75
2022/07/04 07:21:04;;;;;;;13.15;8.57;;;20.50;99.90;;;;;;4968382;28;20042;-74
2022/07/04 07:23:30;;;;;;;17.27;8.13;;;20.50;99.90;;;;;;4974662;28;20052;-73
2022/07/04 07:25:56;;;;;;;22.65;9.23;;;20.70;99.90;;;;;;4969867;28;20046;-73
2022/07/04 07:28:21;;;;;;;17.70;9.65;;;20.80;99.90;;;;;;4986506;28;20157;-72
2022/07/04 07:30:47;;;;;;;13.75;9.07;;;20.90;99.90;;;;;;4986765;28;20053;-72
2022/07/04 07:33:13;;;;;;;10.27;8.70;;;20.80;99.90;;;;;;4968192;28;20109;-73
2022/07/04 07:35:38;;;;;;;18.70;9.95;;;20.90;99.90;;;;;;4965347;28;20389;-73
2022/07/04 07:38:06;;;;;;;15.43;8.23;;;21.00;99.90;;;;;;4968065;28;20048;-73
2022/07/04 07:40:31;;;;;;;17.08;9.00;;;21.20;99.90;;;;;;4967496;28;20089;-72
2022/07/04 07:42:57;;;;;;;15.45;7.85;;;21.40;99.90;;;;;;4967429;28;20082;-72
2022/07/04 07:45:23;;;;;;;13.27;8.98;;;21.70;99.90;;;;;;4968753;28;20055;-72
2022/07/04 07:47:49;;;;;;;20.20;8.88;;;21.90;99.90;;;;;;4968669;28;20146;-73
2022/07/04 07:50:14;;;;;;;14.98;10.00;;;22.10;99.90;;;;;;4963735;28;20051;-73
2022/07/04 07:52:40;;;;;;;18.88;9.00;;;22.10;99.90;;;;;;4967589;28;20407;-72
2022/07/04 07:55:06;;;;;;;15.73;8.45;;;22.10;99.90;;;;;;4967387;28;20501;-74
2022/07/04 07:57:32;;;;;;;17.77;8.65;;;22.30;99.90;;;;;;4967163;28;20264;-73
2022/07/04 07:59:58;;;;;;;32.50;8.85;;;22.40;99.90;;;;;;4953059;28;20475;-74
2022/07/04 08:05:11;;;;;;;9.90;7.78;;;22.70;99.90;;;;;;4946475;28;20483;-74
2022/07/04 08:07:37;;;;;;;11.90;6.33;;;22.80;99.90;;;;;;4965938;28;20500;-72
2022/07/04 08:10:04;;;;;;;9.32;7.32;;;22.40;99.90;;;;;;4964445;28;20050;-73
2022/07/04 08:12:29;;;;;;;11.25;7.80;;;22.20;99.90;;;;;;4976490;28;20043;-73
2022/07/04 08:14:55;;;;;;;10.80;7.10;;;22.00;99.90;;;;;;4954970;28;20142;-74
2022/07/04 08:17:21;;;;;;;16.13;7.88;;;21.90;99.90;;;;;;4966125;28;20054;-74
2022/07/04 08:19:47;;;;;;;11.70;7.68;;;21.60;99.90;;;;;;4967036;28;20122;-77
2022/07/04 08:22:13;;;;;;;19.27;7.38;;;21.70;99.90;;;;;;4966834;28;20055;-75
2022/07/04 08:24:39;;;;;;;12.70;6.68;;;21.60;99.90;;;;;;4963738;28;20117;-75
2022/07/04 08:27:05;;;;;;;10.57;6.65;;;21.70;99.90;;;;;;4965594;28;20837;-77
2022/07/04 08:29:32;;;;;;;15.63;8.40;;;21.70;99.90;;;;;;4965540;28;20554;-76
2022/07/04 08:31:57;;;;;;;17.80;8.40;;;21.60;99.90;;;;;;4958645;28;20424;-75
2022/07/04 08:34:23;;;;;;;13.38;7.95;;;21.30;99.90;;;;;;4967632;28;20039;-76
2022/07/04 08:36:51;;;;;;;12.65;8.00;;;21.20;99.90;;;;;;4966705;28;20051;-75
2022/07/04 08:39:16;;;;;;;12.40;8.27;;;21.00;99.90;;;;;;4970032;28;20058;-76
2022/07/04 08:41:42;;;;;;;10.18;7.07;;;21.00;99.90;;;;;;4967883;28;20054;-76
2022/07/04 08:44:10;;;;;;;16.58;7.40;;;21.20;99.90;;;;;;4970590;28;20433;-75
2022/07/04 08:46:39;;;;;;;11.93;7.85;;;21.70;99.90;;;;;;4970463;28;20053;-76
2022/07/04 08:49:31;;;;;;;11.57;7.00;;;22.00;99.90;;;;;;4971460;28;20065;-76
2022/07/04 08:52:04;;;;;;;13.48;6.68;;;22.30;99.90;;;;;;4970212;28;20492;-75
2022/07/04 09:00:01;;;;;;;12.50;7.10;;;22.80;99.90;;;;;;4971238;28;20717;-77
2022/07/04 09:02:31;;;;;;;11.80;5.65;;;22.90;99.90;;;;;;4970214;28;20097;-76
2022/07/04 09:04:56;;;;;;;9.40;5.15;;;22.90;99.90;;;;;;4962881;28;20047;-76
2022/07/04 09:07:22;;;;;;;6.22;3.92;;;23.10;99.90;;;;;;4982014;28;20047;-75
2022/07/04 09:09:49;;;;;;;8.60;4.30;;;23.20;99.90;;;;;;4971899;28;20066;-75
2022/07/04 09:12:14;;;;;;;9.00;4.77;;;23.40;99.90;;;;;;4970164;28;20083;-75
2022/07/04 09:14:40;;;;;;;18.02;5.35;;;23.60;99.90;;;;;;4969750;28;20322;-75
2022/07/04 09:17:07;;;;;;;8.48;4.38;;;23.70;99.90;;;;;;4969275;28;20051;-73
2022/07/04 09:19:33;;;;;;;11.73;4.38;;;23.70;99.90;;;;;;4969814;28;20054;-75
2022/07/04 09:22:05;;;;;;;7.63;4.15;;;23.60;99.90;;;;;;4969975;28;20484;-73
2022/07/04 09:24:52;;;;;;;5.95;4.70;;;23.80;99.90;;;;;;4967895;28;20047;-76
2022/07/04 09:27:48;;;;;;;6.45;3.55;;;24.00;99.90;;;;;;4969083;28;20046;-73
2022/07/04 09:30:16;;;;;;;7.35;4.32;;;24.10;98.80;;;;;;4969516;28;20054;-73
2022/07/04 09:32:46;;;;;;;;;;;24.00;99.90;;;;;;4970632;28;20169;-73
2022/07/04 09:35:20;;;;;;;6.57;3.80;;;24.00;99.90;;;;;;4967700;28;19922;-73
2022/07/04 09:37:49;;;;;;;6.55;3.63;;;24.10;99.90;;;;;;4976772;28;20535;-72
2022/07/04 09:40:30;;;;;;;6.38;3.60;;;23.80;99.90;;;;;;4970944;28;20169;-72
2022/07/04 09:43:00;;;;;;;7.65;3.55;;;23.50;92.50;;;;;;4958961;28;20737;-72
2022/07/04 09:45:28;;;;;;;6.70;3.10;;;23.20;94.20;;;;;;4946523;28;20054;-71
2022/07/04 09:47:55;;;;;;;5.15;3.42;;;23.00;99.90;;;;;;4949853;28;20102;-73
2022/07/04 09:50:22;;;;;;;;;;;22.90;99.90;;;;;;4959600;28;20059;-73
2022/07/04 09:53:05;;;;;;;7.82;4.30;;;22.60;99.90;;;;;;4953309;28;19930;-73
2022/07/04 09:55:37;;;;;;;7.07;4.20;;;22.40;99.90;;;;;;4965695;28;20581;-72
2022/07/04 09:58:11;;;;;;;7.78;4.60;;;22.50;99.90;;;;;;4962139;28;20062;-71
2022/07/04 10:00:39;;;;;;;5.90;4.32;;;22.90;99.90;;;;;;4950353;28;20887;-70
2022/07/04 10:03:18;;;;;;;;;;;23.10;99.90;;;;;;4969318;28;20110;-71
2022/07/04 10:05:46;;;;;;;9.80;4.43;;;23.20;99.90;;;;;;4970679;28;19930;-71
2022/07/04 10:08:12;;;;;;;7.53;4.10;;;23.30;99.90;;;;;;4970790;28;20081;-71
2022/07/04 10:10:44;;;;;;;7.65;3.70;;;23.50;99.90;;;;;;4953367;28;20489;-71
2022/07/04 10:13:11;;;;;;;6.05;3.88;;;23.90;99.90;;;;;;4957418;28;20129;-72
2022/07/04 10:15:39;;;;;;;6.30;3.35;;;23.80;99.90;;;;;;4966159;28;20696;-71
2022/07/04 10:18:07;;;;;;;7.78;3.33;;;24.10;99.90;;;;;;4952856;28;20058;-70
2022/07/04 10:20:33;;;;;;;5.78;3.70;;;24.20;99.70;;;;;;4949542;28;20043;-70
2022/07/04 10:22:59;;;;;;;6.28;3.45;;;24.20;96.30;;;;;;4969954;28;20101;-70
2022/07/04 10:25:25;;;;;;;11.87;5.20;;;24.50;93.80;;;;;;4952032;28;20047;-69
2022/07/04 10:27:51;;;;;;;8.57;4.85;;;24.40;89.20;;;;;;4971058;28;20055;-69
2022/07/04 10:30:34;;;;;;;11.10;3.70;;;24.40;92.70;;;;;;4963259;28;20102;-69
2022/07/04 10:33:03;;;;;;;7.57;3.60;;;24.40;88.50;;;;;;4965162;28;20051;-69
2022/07/04 10:35:49;;;;;;;37.97;5.25;;;24.50;93.30;;;;;;4953552;28;20050;-69
2022/07/04 10:38:17;;;;;;;6.55;3.22;;;24.60;92.00;;;;;;4968038;28;20504;-69
2022/07/04 10:40:44;;;;;;;6.45;3.03;;;24.70;89.20;;;;;;4952669;28;20078;-68
2022/07/04 10:43:37;;;;;;;6.47;3.67;;;24.50;87.30;;;;;;4966727;28;20054;-68
2022/07/04 10:46:14;;;;;;;5.15;2.83;;;24.30;78.10;;;;;;4951655;28;20047;-69
2022/07/04 10:48:52;;;;;;;;;;;24.00;86.40;;;;;;4952555;28;20042;-70
2022/07/04 10:51:41;;;;;;;9.75;4.53;;;23.90;83.20;;;;;;4967135;28;19929;-69
2022/07/04 10:54:08;;;;;;;7.60;3.10;;;24.10;85.00;;;;;;4965120;28;20105;-69
2022/07/04 10:56:45;;;;;;;15.73;4.68;;;23.90;84.10;;;;;;4968499;28;20089;-69
2022/07/04 10:59:13;;;;;;;3.83;2.97;;;23.80;86.90;;;;;;4962436;28;20051;-69
2022/07/04 11:01:45;;;;;;;8.07;4.03;;;23.60;87.40;;;;;;4960743;28;20057;-69
2022/07/04 11:04:11;;;;;;;6.53;3.75;;;23.40;84.00;;;;;;4969298;28;20086;-68
2022/07/04 11:06:37;;;;;;;3.47;3.10;;;23.30;84.90;;;;;;4964715;28;20074;-70
2022/07/04 11:09:23;;;;;;;5.25;3.03;;;23.50;81.80;;;;;;4967588;28;20078;-69
2022/07/04 11:11:56;;;;;;;8.50;3.47;;;23.60;76.60;;;;;;4969195;28;20134;-70
2022/07/04 11:14:45;;;;;;;7.18;3.72;;;23.80;83.30;;;;;;4968693;28;20393;-69
2022/07/04 11:17:18;;;;;;;8.60;3.90;;;24.10;81.90;;;;;;4967101;28;20043;-69
2022/07/04 11:19:44;;;;;;;7.63;3.97;;;24.20;82.00;;;;;;4947416;28;20094;-69
2022/07/04 11:22:10;;;;;;;3.50;3.20;;;24.20;79.30;;;;;;4969214;28;20133;-70
2022/07/04 11:24:38;;;;;;;8.90;3.55;;;24.30;77.50;;;;;;4967208;28;21348;-71
2022/07/04 11:27:06;;;;;;;4.88;4.20;;;24.30;77.40;;;;;;4951946;28;20140;-69
2022/07/04 11:29:32;;;;;;;4.00;3.38;;;24.40;74.30;;;;;;4968816;28;20053;-70
2022/07/04 11:31:57;;;;;;;7.57;3.92;;;24.60;75.40;;;;;;4970207;28;20054;-71
2022/07/04 11:34:24;;;;;;;4.50;3.65;;;24.80;75.10;;;;;;4962866;28;20050;-70
2022/07/04 11:36:51;;;;;;;6.82;3.80;;;24.70;74.20;;;;;;4960463;28;20062;-70
2022/07/04 11:39:21;;;;;;;4.25;3.45;;;24.80;75.50;;;;;;4968354;28;20507;-70
2022/07/04 11:45:02;;;;;;;8.90;4.22;;;25.20;76.30;;;;;;4972514;28;20137;-69
2022/07/04 11:47:42;;;;;;;108.38;17.63;;;25.30;73.40;;;;;;4966757;28;20493;-70
2022/07/04 11:50:22;;;;;;;12.18;4.25;;;25.40;69.40;;;;;;4978291;28;20875;-70
2022/07/04 11:52:53;;;;;;;14.52;5.88;;;25.40;68.10;;;;;;4954252;28;20043;-70
2022/07/04 11:55:21;;;;;;;4.75;4.35;;;25.50;70.60;;;;;;4961456;28;20054;-69
2022/07/04 11:57:49;;;;;;;16.45;4.05;;;25.10;66.00;;;;;;4965831;28;20046;-70
2022/07/04 12:00:21;;;;;;;4.53;4.05;;;24.90;70.40;;;;;;4954823;28;20050;-70
2022/07/04 12:02:49;;;;;;;48.90;7.93;;;24.90;67.20;;;;;;4966622;28;20061;-70
2022/07/04 12:05:16;;;;;;;4.35;3.58;;;24.60;70.50;;;;;;4966024;28;20042;-71
2022/07/04 12:07:44;;;;;;;8.23;3.05;;;24.60;72.30;;;;;;4967505;28;20046;-70
2022/07/04 12:10:21;;;;;;;6.72;3.28;;;24.60;70.90;;;;;;4967654;28;20054;-70
2022/07/04 12:12:58;;;;;;;6.43;3.75;;;24.50;66.30;;;;;;4967792;28;20050;-67
2022/07/04 12:15:43;;;;;;;4.55;3.60;;;24.50;65.90;;;;;;4974333;28;20055;-67
2022/07/04 12:18:17;;;;;;;13.27;3.78;;;24.50;64.60;;;;;;4969632;28;20053;-67
2022/07/04 12:20:44;;;;;;;4.97;3.50;;;24.80;66.70;;;;;;4968320;28;20034;-67
2022/07/04 12:23:09;;;;;;;6.63;3.70;;;24.80;63.20;;;;;;4970787;28;20042;-67
2022/07/04 12:25:38;;;;;;;4.05;2.75;;;25.00;63.20;;;;;;4970612;28;20031;-67
2022/07/04 12:28:11;;;;;;;3.70;2.85;;;24.90;62.10;;;;;;4971187;28;20046;-67
2022/07/04 12:30:54;;;;;;;6.13;3.45;;;24.80;61.00;;;;;;4970604;28;20055;-67
2022/07/04 12:33:22;;;;;;;6.90;3.20;;;24.70;60.90;;;;;;4967061;28;20125;-68
2022/07/04 12:35:50;;;;;;;3.83;3.20;;;24.70;62.50;;;;;;4913026;28;1685654;-67
2022/07/04 12:38:21;;;;;;;3.20;2.90;;;24.60;62.70;;;;;;4971710;28;20125;-68
2022/07/04 12:41:13;;;;;;;4.53;2.90;;;24.70;62.90;;;;;;4954168;28;20047;-68
2022/07/04 12:43:41;;;;;;;13.07;2.90;;;24.70;59.10;;;;;;4965617;28;20050;-67
2022/07/04 12:46:12;;;;;;;4.10;3.10;;;24.80;60.20;;;;;;4971623;28;20070;-68
2022/07/04 12:48:39;;;;;;;5.03;2.72;;;24.80;58.90;;;;;;4964944;28;20051;-68
2022/07/04 12:51:20;;;;;;;4.72;2.85;;;24.90;59.20;;;;;;4971727;28;20163;-67
2022/07/04 12:53:48;;;;;;;3.88;3.20;;;24.80;57.50;;;;;;4971377;28;20125;-68
2022/07/04 12:56:38;;;;;;;3.25;2.35;;;24.80;59.10;;;;;;4954330;28;20046;-69
2022/07/04 12:59:06;;;;;;;3.45;2.13;;;24.90;57.40;;;;;;4963813;28;20130;-68